Moran, Texas
Current Conditions -  °F | °C
As of 2:35 AM on Monday 29 Dec 2014 (Local Time) from KBKD Reporting Station
Clear Clear  
Wind Chill: 33°   Ceiling: Unl
Heat Index: 40°   Visibility: 10mi
Dew Point: 28°   Wind: 10mph
Humidity: 62%   Direction: 170°S
Pressure: 30.05"   Gusts: NA
Location:  32.55°N, 99.17°W
Report Text: KBKD 290835Z AUTO 17009KT 10SM CLR 04/M02 A3005 RMK AO2 T00431025
Loading
Personal Weather Stations






























Interactive Weather Map New forecast layout! Learn more

10-Day Weather Forecast

Advertisements
Track Severe Weather on mobile